sensor_id;sensor_type;location;lat;lon;timestamp;P1;durP1;ratioP1;P2;durP2;ratioP2
66575;SDS011;53428;47.686;16.584;2022-12-20T00:04:13;64.60;;;21.17;;
66575;SDS011;53428;47.686;16.584;2022-12-20T00:09:12;57.15;;;21.08;;
66575;SDS011;53428;47.686;16.584;2022-12-20T00:14:11;57.50;;;21.67;;
66575;SDS011;53428;47.686;16.584;2022-12-20T00:19:11;67.65;;;20.33;;
66575;SDS011;53428;47.686;16.584;2022-12-20T00:24:10;71.88;;;23.73;;
66575;SDS011;53428;47.686;16.584;2022-12-20T00:29:10;75.63;;;24.70;;
66575;SDS011;53428;47.686;16.584;2022-12-20T00:34:09;73.88;;;22.88;;
66575;SDS011;53428;47.686;16.584;2022-12-20T00:39:09;66.57;;;22.35;;
66575;SDS011;53428;47.686;16.584;2022-12-20T00:44:08;62.97;;;19.38;;
66575;SDS011;53428;47.686;16.584;2022-12-20T00:49:07;60.67;;;20.73;;
66575;SDS011;53428;47.686;16.584;2022-12-20T00:54:07;64.68;;;22.10;;
66575;SDS011;53428;47.686;16.584;2022-12-20T00:59:06;66.03;;;20.33;;
66575;SDS011;53428;47.686;16.584;2022-12-20T01:04:06;52.67;;;17.27;;
66575;SDS011;53428;47.686;16.584;2022-12-20T01:09:06;52.50;;;19.55;;
66575;SDS011;53428;47.686;16.584;2022-12-20T01:14:12;60.35;;;22.55;;
66575;SDS011;53428;47.686;16.584;2022-12-20T01:19:14;56.35;;;20.48;;
66575;SDS011;53428;47.686;16.584;2022-12-20T01:24:16;52.80;;;18.90;;
66575;SDS011;53428;47.686;16.584;2022-12-20T01:29:17;55.90;;;19.42;;
66575;SDS011;53428;47.686;16.584;2022-12-20T01:34:16;49.35;;;17.52;;
66575;SDS011;53428;47.686;16.584;2022-12-20T01:39:16;59.28;;;21.17;;
66575;SDS011;53428;47.686;16.584;2022-12-20T01:49:21;62.65;;;21.67;;
66575;SDS011;53428;47.686;16.584;2022-12-20T01:54:31;53.08;;;18.98;;
66575;SDS011;53428;47.686;16.584;2022-12-20T01:59:34;65.90;;;19.63;;
66575;SDS011;53428;47.686;16.584;2022-12-20T02:04:37;61.03;;;20.55;;
66575;SDS011;53428;47.686;16.584;2022-12-20T02:09:36;62.28;;;23.05;;
66575;SDS011;53428;47.686;16.584;2022-12-20T02:30:41;60.80;;;20.58;;
66575;SDS011;53428;47.686;16.584;2022-12-20T02:35:43;69.30;;;20.90;;
66575;SDS011;53428;47.686;16.584;2022-12-20T02:40:42;54.35;;;21.25;;
66575;SDS011;53428;47.686;16.584;2022-12-20T02:45:42;51.00;;;18.60;;
66575;SDS011;53428;47.686;16.584;2022-12-20T02:50:45;58.65;;;21.25;;
66575;SDS011;53428;47.686;16.584;2022-12-20T02:55:50;50.85;;;18.40;;
66575;SDS011;53428;47.686;16.584;2022-12-20T03:00:57;51.50;;;21.05;;
66575;SDS011;53428;47.686;16.584;2022-12-20T03:06:02;58.42;;;20.70;;
66575;SDS011;53428;47.686;16.584;2022-12-20T03:11:02;57.90;;;19.30;;
66575;SDS011;53428;47.686;16.584;2022-12-20T03:16:01;64.38;;;20.48;;
66575;SDS011;53428;47.686;16.584;2022-12-20T03:21:01;56.38;;;22.13;;
66575;SDS011;53428;47.686;16.584;2022-12-20T03:26:00;47.25;;;18.90;;
66575;SDS011;53428;47.686;16.584;2022-12-20T03:31:00;59.92;;;19.80;;
66575;SDS011;53428;47.686;16.584;2022-12-20T03:35:59;51.95;;;19.52;;
66575;SDS011;53428;47.686;16.584;2022-12-20T03:40:58;59.60;;;21.13;;
66575;SDS011;53428;47.686;16.584;2022-12-20T03:45:58;56.13;;;18.23;;
66575;SDS011;53428;47.686;16.584;2022-12-20T03:50:57;56.15;;;19.13;;
66575;SDS011;53428;47.686;16.584;2022-12-20T03:55:56;53.05;;;19.20;;
66575;SDS011;53428;47.686;16.584;2022-12-20T04:00:56;54.97;;;21.17;;
66575;SDS011;53428;47.686;16.584;2022-12-20T04:05:56;53.33;;;20.35;;
66575;SDS011;53428;47.686;16.584;2022-12-20T04:10:55;51.60;;;19.73;;
66575;SDS011;53428;47.686;16.584;2022-12-20T04:16:14;51.50;;;19.40;;
66575;SDS011;53428;47.686;16.584;2022-12-20T04:21:19;49.22;;;16.85;;
66575;SDS011;53428;47.686;16.584;2022-12-20T04:26:20;55.97;;;18.80;;
66575;SDS011;53428;47.686;16.584;2022-12-20T04:31:20;57.47;;;21.90;;
66575;SDS011;53428;47.686;16.584;2022-12-20T04:36:19;59.53;;;20.50;;
66575;SDS011;53428;47.686;16.584;2022-12-20T04:41:19;70.43;;;22.00;;
66575;SDS011;53428;47.686;16.584;2022-12-20T04:46:22;54.97;;;20.58;;
66575;SDS011;53428;47.686;16.584;2022-12-20T04:51:22;58.22;;;22.98;;
66575;SDS011;53428;47.686;16.584;2022-12-20T04:56:23;49.92;;;19.08;;
66575;SDS011;53428;47.686;16.584;2022-12-20T05:01:25;50.55;;;20.70;;
66575;SDS011;53428;47.686;16.584;2022-12-20T05:06:25;59.80;;;20.30;;
66575;SDS011;53428;47.686;16.584;2022-12-20T05:11:24;52.63;;;20.08;;
66575;SDS011;53428;47.686;16.584;2022-12-20T05:16:23;58.60;;;21.05;;
66575;SDS011;53428;47.686;16.584;2022-12-20T05:21:22;66.40;;;23.45;;
66575;SDS011;53428;47.686;16.584;2022-12-20T05:26:40;75.63;;;22.38;;
66575;SDS011;53428;47.686;16.584;2022-12-20T05:31:40;69.68;;;21.33;;
66575;SDS011;53428;47.686;16.584;2022-12-20T05:36:39;69.18;;;24.67;;
66575;SDS011;53428;47.686;16.584;2022-12-20T05:41:38;74.45;;;23.98;;
66575;SDS011;53428;47.686;16.584;2022-12-20T05:46:38;77.63;;;23.85;;
66575;SDS011;53428;47.686;16.584;2022-12-20T05:51:37;72.50;;;26.85;;
66575;SDS011;53428;47.686;16.584;2022-12-20T05:56:37;68.63;;;21.98;;
66575;SDS011;53428;47.686;16.584;2022-12-20T06:01:37;76.03;;;23.63;;
66575;SDS011;53428;47.686;16.584;2022-12-20T06:06:36;64.82;;;24.25;;
66575;SDS011;53428;47.686;16.584;2022-12-20T06:11:35;77.40;;;26.42;;
66575;SDS011;53428;47.686;16.584;2022-12-20T06:16:35;81.93;;;23.35;;
66575;SDS011;53428;47.686;16.584;2022-12-20T06:21:34;91.15;;;28.30;;
66575;SDS011;53428;47.686;16.584;2022-12-20T06:26:34;83.05;;;27.20;;
66575;SDS011;53428;47.686;16.584;2022-12-20T06:31:36;74.50;;;24.80;;
66575;SDS011;53428;47.686;16.584;2022-12-20T06:36:35;68.82;;;23.55;;
66575;SDS011;53428;47.686;16.584;2022-12-20T06:41:35;77.25;;;22.75;;
66575;SDS011;53428;47.686;16.584;2022-12-20T06:46:34;98.85;;;26.13;;
66575;SDS011;53428;47.686;16.584;2022-12-20T06:51:33;74.22;;;27.52;;
66575;SDS011;53428;47.686;16.584;2022-12-20T06:56:32;80.10;;;25.33;;
66575;SDS011;53428;47.686;16.584;2022-12-20T07:01:32;70.00;;;26.70;;
66575;SDS011;53428;47.686;16.584;2022-12-20T07:06:32;69.38;;;25.10;;
66575;SDS011;53428;47.686;16.584;2022-12-20T07:11:31;62.92;;;20.98;;
66575;SDS011;53428;47.686;16.584;2022-12-20T07:16:30;75.10;;;25.38;;
66575;SDS011;53428;47.686;16.584;2022-12-20T07:21:30;65.30;;;23.85;;
66575;SDS011;53428;47.686;16.584;2022-12-20T07:26:29;65.07;;;24.45;;
66575;SDS011;53428;47.686;16.584;2022-12-20T07:31:28;65.88;;;21.90;;
66575;SDS011;53428;47.686;16.584;2022-12-20T07:36:27;82.35;;;23.00;;
66575;SDS011;53428;47.686;16.584;2022-12-20T07:41:26;69.15;;;22.90;;
66575;SDS011;53428;47.686;16.584;2022-12-20T07:46:26;70.88;;;21.85;;
66575;SDS011;53428;47.686;16.584;2022-12-20T07:51:37;74.07;;;24.48;;
66575;SDS011;53428;47.686;16.584;2022-12-20T07:56:40;63.22;;;18.95;;
66575;SDS011;53428;47.686;16.584;2022-12-20T08:01:43;56.47;;;19.40;;
66575;SDS011;53428;47.686;16.584;2022-12-20T08:06:43;52.13;;;19.67;;
66575;SDS011;53428;47.686;16.584;2022-12-20T08:11:45;63.53;;;20.38;;
66575;SDS011;53428;47.686;16.584;2022-12-20T08:16:46;61.05;;;19.45;;
66575;SDS011;53428;47.686;16.584;2022-12-20T08:21:45;56.25;;;18.90;;
66575;SDS011;53428;47.686;16.584;2022-12-20T08:26:44;53.20;;;17.35;;
66575;SDS011;53428;47.686;16.584;2022-12-20T08:31:43;46.75;;;20.25;;
66575;SDS011;53428;47.686;16.584;2022-12-20T08:36:43;58.28;;;19.40;;
66575;SDS011;53428;47.686;16.584;2022-12-20T08:41:42;51.08;;;20.27;;
66575;SDS011;53428;47.686;16.584;2022-12-20T08:46:42;52.20;;;19.23;;
66575;SDS011;53428;47.686;16.584;2022-12-20T08:51:41;56.65;;;21.85;;
66575;SDS011;53428;47.686;16.584;2022-12-20T08:56:40;54.85;;;20.67;;
66575;SDS011;53428;47.686;16.584;2022-12-20T09:01:40;48.72;;;17.75;;
66575;SDS011;53428;47.686;16.584;2022-12-20T09:06:39;51.50;;;18.45;;
66575;SDS011;53428;47.686;16.584;2022-12-20T09:11:38;59.92;;;18.63;;
66575;SDS011;53428;47.686;16.584;2022-12-20T09:16:38;49.65;;;17.80;;
66575;SDS011;53428;47.686;16.584;2022-12-20T09:21:38;46.05;;;17.42;;
66575;SDS011;53428;47.686;16.584;2022-12-20T09:26:39;42.65;;;15.55;;
66575;SDS011;53428;47.686;16.584;2022-12-20T09:31:40;42.15;;;16.33;;
66575;SDS011;53428;47.686;16.584;2022-12-20T09:36:40;44.10;;;16.05;;
66575;SDS011;53428;47.686;16.584;2022-12-20T09:41:40;49.50;;;19.45;;
66575;SDS011;53428;47.686;16.584;2022-12-20T09:46:42;37.45;;;17.15;;
66575;SDS011;53428;47.686;16.584;2022-12-20T09:57:28;52.95;;;18.27;;
66575;SDS011;53428;47.686;16.584;2022-12-20T10:02:44;54.47;;;19.83;;
66575;SDS011;53428;47.686;16.584;2022-12-20T10:28:59;57.60;;;22.33;;
66575;SDS011;53428;47.686;16.584;2022-12-20T10:33:58;67.13;;;23.40;;
66575;SDS011;53428;47.686;16.584;2022-12-20T10:38:58;63.03;;;22.58;;
66575;SDS011;53428;47.686;16.584;2022-12-20T10:44:15;72.85;;;24.40;;
66575;SDS011;53428;47.686;16.584;2022-12-20T10:49:27;68.97;;;22.30;;
66575;SDS011;53428;47.686;16.584;2022-12-20T10:54:38;59.53;;;21.40;;
66575;SDS011;53428;47.686;16.584;2022-12-20T10:59:40;78.53;;;25.75;;
66575;SDS011;53428;47.686;16.584;2022-12-20T11:04:43;76.88;;;21.95;;
66575;SDS011;53428;47.686;16.584;2022-12-20T11:10:00;64.97;;;26.08;;
66575;SDS011;53428;47.686;16.584;2022-12-20T11:15:21;67.47;;;22.08;;
66575;SDS011;53428;47.686;16.584;2022-12-20T11:25:35;47.30;;;19.00;;
66575;SDS011;53428;47.686;16.584;2022-12-20T11:36:39;61.05;;;21.83;;
66575;SDS011;53428;47.686;16.584;2022-12-20T11:47:03;51.80;;;20.25;;
66575;SDS011;53428;47.686;16.584;2022-12-20T11:57:37;66.07;;;19.33;;
66575;SDS011;53428;47.686;16.584;2022-12-20T12:03:00;55.28;;;20.70;;
66575;SDS011;53428;47.686;16.584;2022-12-20T12:08:10;55.13;;;19.55;;
66575;SDS011;53428;47.686;16.584;2022-12-20T12:13:17;48.33;;;18.80;;
66575;SDS011;53428;47.686;16.584;2022-12-20T12:18:24;67.53;;;20.80;;
66575;SDS011;53428;47.686;16.584;2022-12-20T12:23:45;46.40;;;19.48;;
66575;SDS011;53428;47.686;16.584;2022-12-20T12:28:54;56.47;;;19.40;;
66575;SDS011;53428;47.686;16.584;2022-12-20T12:34:01;61.83;;;20.48;;
66575;SDS011;53428;47.686;16.584;2022-12-20T12:44:39;45.67;;;17.27;;
66575;SDS011;53428;47.686;16.584;2022-12-20T12:49:46;50.47;;;20.35;;
66575;SDS011;53428;47.686;16.584;2022-12-20T12:54:48;52.60;;;19.17;;
66575;SDS011;53428;47.686;16.584;2022-12-20T12:59:49;50.88;;;20.10;;
66575;SDS011;53428;47.686;16.584;2022-12-20T13:25:27;65.15;;;23.30;;
66575;SDS011;53428;47.686;16.584;2022-12-20T13:30:28;85.93;;;31.05;;
66575;SDS011;53428;47.686;16.584;2022-12-20T13:35:29;62.25;;;23.15;;
66575;SDS011;53428;47.686;16.584;2022-12-20T13:40:48;50.47;;;22.25;;
66575;SDS011;53428;47.686;16.584;2022-12-20T13:50:56;47.47;;;19.77;;
66575;SDS011;53428;47.686;16.584;2022-12-20T13:55:56;58.75;;;19.80;;
66575;SDS011;53428;47.686;16.584;2022-12-20T14:01:05;62.25;;;21.55;;
66575;SDS011;53428;47.686;16.584;2022-12-20T14:06:09;50.05;;;19.88;;
66575;SDS011;53428;47.686;16.584;2022-12-20T14:11:14;56.80;;;20.45;;
66575;SDS011;53428;47.686;16.584;2022-12-20T14:16:21;48.78;;;18.92;;
66575;SDS011;53428;47.686;16.584;2022-12-20T14:21:22;50.83;;;19.35;;
66575;SDS011;53428;47.686;16.584;2022-12-20T14:26:32;52.30;;;18.85;;
66575;SDS011;53428;47.686;16.584;2022-12-20T14:31:39;60.50;;;17.55;;
66575;SDS011;53428;47.686;16.584;2022-12-20T14:36:44;54.63;;;19.88;;
66575;SDS011;53428;47.686;16.584;2022-12-20T14:41:44;49.28;;;19.63;;
66575;SDS011;53428;47.686;16.584;2022-12-20T14:46:51;51.58;;;19.17;;
66575;SDS011;53428;47.686;16.584;2022-12-20T14:51:54;56.72;;;20.23;;
66575;SDS011;53428;47.686;16.584;2022-12-20T14:57:21;53.95;;;20.65;;
66575;SDS011;53428;47.686;16.584;2022-12-20T15:02:33;56.83;;;22.20;;
66575;SDS011;53428;47.686;16.584;2022-12-20T15:07:38;58.95;;;20.30;;
66575;SDS011;53428;47.686;16.584;2022-12-20T15:12:39;57.53;;;21.65;;
66575;SDS011;53428;47.686;16.584;2022-12-20T15:17:41;68.07;;;23.25;;
66575;SDS011;53428;47.686;16.584;2022-12-20T15:22:40;60.90;;;22.08;;
66575;SDS011;53428;47.686;16.584;2022-12-20T15:27:43;59.33;;;21.98;;
66575;SDS011;53428;47.686;16.584;2022-12-20T15:32:42;63.55;;;22.13;;
66575;SDS011;53428;47.686;16.584;2022-12-20T15:37:41;51.00;;;19.60;;
66575;SDS011;53428;47.686;16.584;2022-12-20T15:42:41;62.78;;;22.52;;
66575;SDS011;53428;47.686;16.584;2022-12-20T15:47:41;61.15;;;20.85;;
66575;SDS011;53428;47.686;16.584;2022-12-20T15:52:40;54.05;;;20.55;;
66575;SDS011;53428;47.686;16.584;2022-12-20T15:57:39;63.28;;;20.63;;
66575;SDS011;53428;47.686;16.584;2022-12-20T16:02:39;57.40;;;19.85;;
66575;SDS011;53428;47.686;16.584;2022-12-20T16:07:38;56.95;;;23.20;;
66575;SDS011;53428;47.686;16.584;2022-12-20T16:12:38;69.65;;;23.23;;
66575;SDS011;53428;47.686;16.584;2022-12-20T16:17:37;58.15;;;21.98;;
66575;SDS011;53428;47.686;16.584;2022-12-20T16:22:36;50.55;;;18.90;;
66575;SDS011;53428;47.686;16.584;2022-12-20T16:27:35;55.45;;;20.83;;
66575;SDS011;53428;47.686;16.584;2022-12-20T16:32:35;62.30;;;22.52;;
66575;SDS011;53428;47.686;16.584;2022-12-20T16:37:34;56.65;;;21.15;;
66575;SDS011;53428;47.686;16.584;2022-12-20T16:42:33;46.17;;;19.90;;
66575;SDS011;53428;47.686;16.584;2022-12-20T16:47:33;57.92;;;24.23;;
66575;SDS011;53428;47.686;16.584;2022-12-20T16:52:32;67.88;;;22.38;;
66575;SDS011;53428;47.686;16.584;2022-12-20T16:57:35;58.13;;;22.13;;
66575;SDS011;53428;47.686;16.584;2022-12-20T17:02:34;51.35;;;19.58;;
66575;SDS011;53428;47.686;16.584;2022-12-20T17:07:33;43.75;;;19.60;;
66575;SDS011;53428;47.686;16.584;2022-12-20T17:12:32;54.42;;;18.77;;
66575;SDS011;53428;47.686;16.584;2022-12-20T17:17:32;53.65;;;20.55;;
66575;SDS011;53428;47.686;16.584;2022-12-20T17:22:32;56.63;;;22.23;;
66575;SDS011;53428;47.686;16.584;2022-12-20T17:27:31;56.28;;;21.80;;
66575;SDS011;53428;47.686;16.584;2022-12-20T17:32:30;53.33;;;19.55;;
66575;SDS011;53428;47.686;16.584;2022-12-20T17:37:29;47.92;;;21.05;;
66575;SDS011;53428;47.686;16.584;2022-12-20T17:42:28;49.72;;;18.77;;
66575;SDS011;53428;47.686;16.584;2022-12-20T17:47:27;50.30;;;20.27;;
66575;SDS011;53428;47.686;16.584;2022-12-20T17:52:27;44.03;;;18.38;;
66575;SDS011;53428;47.686;16.584;2022-12-20T17:57:26;53.50;;;18.73;;
66575;SDS011;53428;47.686;16.584;2022-12-20T18:02:25;53.15;;;16.13;;
66575;SDS011;53428;47.686;16.584;2022-12-20T18:07:25;43.28;;;15.32;;
66575;SDS011;53428;47.686;16.584;2022-12-20T18:12:24;50.95;;;19.80;;
66575;SDS011;53428;47.686;16.584;2022-12-20T18:17:23;47.28;;;18.85;;
66575;SDS011;53428;47.686;16.584;2022-12-20T18:22:23;34.53;;;15.80;;
66575;SDS011;53428;47.686;16.584;2022-12-20T18:27:22;38.78;;;16.50;;
66575;SDS011;53428;47.686;16.584;2022-12-20T18:32:22;36.42;;;14.98;;
66575;SDS011;53428;47.686;16.584;2022-12-20T18:37:21;41.38;;;16.25;;
66575;SDS011;53428;47.686;16.584;2022-12-20T18:42:21;45.40;;;17.23;;
66575;SDS011;53428;47.686;16.584;2022-12-20T18:47:20;53.65;;;16.33;;
66575;SDS011;53428;47.686;16.584;2022-12-20T18:52:19;44.15;;;13.98;;
66575;SDS011;53428;47.686;16.584;2022-12-20T18:57:19;42.88;;;15.60;;
66575;SDS011;53428;47.686;16.584;2022-12-20T19:02:18;38.10;;;16.30;;
66575;SDS011;53428;47.686;16.584;2022-12-20T19:07:18;38.50;;;16.10;;
66575;SDS011;53428;47.686;16.584;2022-12-20T19:12:17;46.17;;;17.60;;
66575;SDS011;53428;47.686;16.584;2022-12-20T19:17:17;45.97;;;16.55;;
66575;SDS011;53428;47.686;16.584;2022-12-20T19:22:17;42.53;;;15.32;;
66575;SDS011;53428;47.686;16.584;2022-12-20T19:27:17;43.70;;;17.35;;
66575;SDS011;53428;47.686;16.584;2022-12-20T19:32:16;46.83;;;18.17;;
66575;SDS011;53428;47.686;16.584;2022-12-20T19:37:17;43.95;;;17.52;;
66575;SDS011;53428;47.686;16.584;2022-12-20T19:42:16;48.15;;;18.25;;
66575;SDS011;53428;47.686;16.584;2022-12-20T19:47:16;43.95;;;15.50;;
66575;SDS011;53428;47.686;16.584;2022-12-20T19:52:15;48.75;;;20.35;;
66575;SDS011;53428;47.686;16.584;2022-12-20T19:57:15;46.15;;;18.08;;
66575;SDS011;53428;47.686;16.584;2022-12-20T20:02:14;43.03;;;17.80;;
66575;SDS011;53428;47.686;16.584;2022-12-20T20:07:14;43.63;;;17.58;;
66575;SDS011;53428;47.686;16.584;2022-12-20T20:12:13;56.20;;;22.45;;
66575;SDS011;53428;47.686;16.584;2022-12-20T20:17:12;45.35;;;17.85;;
66575;SDS011;53428;47.686;16.584;2022-12-20T20:22:12;47.88;;;16.90;;
66575;SDS011;53428;47.686;16.584;2022-12-20T20:27:11;48.17;;;16.95;;
66575;SDS011;53428;47.686;16.584;2022-12-20T20:32:11;48.53;;;19.70;;
66575;SDS011;53428;47.686;16.584;2022-12-20T20:37:10;128.35;;;34.38;;
66575;SDS011;53428;47.686;16.584;2022-12-20T20:42:09;58.88;;;20.85;;
66575;SDS011;53428;47.686;16.584;2022-12-20T20:47:10;42.40;;;20.73;;
66575;SDS011;53428;47.686;16.584;2022-12-20T20:52:09;80.50;;;28.20;;
66575;SDS011;53428;47.686;16.584;2022-12-20T20:57:09;55.60;;;21.10;;
66575;SDS011;53428;47.686;16.584;2022-12-20T21:02:11;40.05;;;17.40;;
66575;SDS011;53428;47.686;16.584;2022-12-20T21:07:12;40.88;;;16.40;;
66575;SDS011;53428;47.686;16.584;2022-12-20T21:12:11;46.15;;;16.92;;
66575;SDS011;53428;47.686;16.584;2022-12-20T21:17:10;55.00;;;19.13;;
66575;SDS011;53428;47.686;16.584;2022-12-20T21:22:10;39.83;;;16.00;;
66575;SDS011;53428;47.686;16.584;2022-12-20T21:27:09;42.33;;;16.30;;
66575;SDS011;53428;47.686;16.584;2022-12-20T21:32:09;43.20;;;17.90;;
66575;SDS011;53428;47.686;16.584;2022-12-20T21:37:08;37.45;;;17.00;;
66575;SDS011;53428;47.686;16.584;2022-12-20T21:42:08;35.55;;;15.40;;
66575;SDS011;53428;47.686;16.584;2022-12-20T21:47:07;42.05;;;17.50;;
66575;SDS011;53428;47.686;16.584;2022-12-20T21:52:07;41.40;;;15.18;;
66575;SDS011;53428;47.686;16.584;2022-12-20T21:57:06;42.78;;;15.73;;
66575;SDS011;53428;47.686;16.584;2022-12-20T22:02:06;52.35;;;17.75;;
66575;SDS011;53428;47.686;16.584;2022-12-20T22:07:05;51.15;;;16.58;;
66575;SDS011;53428;47.686;16.584;2022-12-20T22:12:05;54.33;;;18.08;;
66575;SDS011;53428;47.686;16.584;2022-12-20T22:17:04;46.22;;;17.27;;
66575;SDS011;53428;47.686;16.584;2022-12-20T22:22:04;45.90;;;16.92;;
66575;SDS011;53428;47.686;16.584;2022-12-20T22:27:03;39.30;;;15.95;;
66575;SDS011;53428;47.686;16.584;2022-12-20T22:32:02;49.78;;;18.30;;
66575;SDS011;53428;47.686;16.584;2022-12-20T22:37:02;41.85;;;16.25;;
66575;SDS011;53428;47.686;16.584;2022-12-20T22:42:02;48.40;;;19.33;;
66575;SDS011;53428;47.686;16.584;2022-12-20T22:47:01;52.55;;;19.25;;
66575;SDS011;53428;47.686;16.584;2022-12-20T22:52:00;48.88;;;17.83;;
66575;SDS011;53428;47.686;16.584;2022-12-20T22:57:00;38.53;;;16.33;;
66575;SDS011;53428;47.686;16.584;2022-12-20T23:01:59;51.75;;;17.13;;
66575;SDS011;53428;47.686;16.584;2022-12-20T23:06:59;52.60;;;17.38;;
66575;SDS011;53428;47.686;16.584;2022-12-20T23:11:59;51.95;;;16.17;;
66575;SDS011;53428;47.686;16.584;2022-12-20T23:17:17;44.72;;;17.02;;
66575;SDS011;53428;47.686;16.584;2022-12-20T23:22:17;42.60;;;17.73;;
66575;SDS011;53428;47.686;16.584;2022-12-20T23:32:34;39.47;;;15.30;;
66575;SDS011;53428;47.686;16.584;2022-12-20T23:37:36;43.08;;;16.40;;
66575;SDS011;53428;47.686;16.584;2022-12-20T23:42:37;53.63;;;17.10;;
66575;SDS011;53428;47.686;16.584;2022-12-20T23:47:37;53.38;;;19.10;;
66575;SDS011;53428;47.686;16.584;2022-12-20T23:52:37;52.22;;;18.75;;
66575;SDS011;53428;47.686;16.584;2022-12-20T23:57:36;50.42;;;16.27;;
